Time,TemperatureF,DewpointF,PressureIn,WindDirection,WindDirectionDegrees,WindSpeedMPH,WindSpeedGustMPH,Humidity,HourlyPrecipIn,Conditions,Clouds,dailyrainin,SoftwareType,DateUTC
2013-04-08 00:09:00,52.3,41.7,29.78,ENE,67,0.0,-999.0,67,-99.99,,,0.00,Acu-Link.com,2013-04-08 04:09:00,
2013-04-08 00:24:00,51.3,41.1,29.79,NNE,22,0.0,-999.0,68,-99.99,,,0.00,Acu-Link.com,2013-04-08 04:24:00,
2013-04-08 00:39:00,50.7,40.9,29.80,NE,45,0.0,-999.0,69,-99.99,,,0.00,Acu-Link.com,2013-04-08 04:39:00,
2013-04-08 00:54:00,50.4,40.2,29.81,NE,45,2.2,-999.0,68,-99.99,,,0.00,Acu-Link.com,2013-04-08 04:54:00,
2013-04-08 01:10:00,49.8,40.0,29.81,East,90,0.0,-999.0,69,-99.99,,,0.00,Acu-Link.com,2013-04-08 05:10:00,
2013-04-08 01:25:00,49.5,39.8,29.81,NNE,22,0.0,-999.0,69,-99.99,,,0.00,Acu-Link.com,2013-04-08 05:25:00,
2013-04-08 01:40:00,49.3,39.9,29.82,West,270,0.0,-999.0,70,-99.99,,,0.00,Acu-Link.com,2013-04-08 05:40:00,
2013-04-08 01:55:00,48.9,39.6,29.83,NE,45,0.0,-999.0,70,-99.99,,,0.00,Acu-Link.com,2013-04-08 05:55:00,
2013-04-08 02:10:00,49.1,39.7,29.83,NNE,22,1.7,-999.0,70,-99.99,,,0.00,Acu-Link.com,2013-04-08 06:10:00,
2013-04-08 02:25:00,48.9,39.6,29.83,West,270,1.7,-999.0,70,-99.99,,,0.00,Acu-Link.com,2013-04-08 06:25:00,
2013-04-08 02:40:00,48.2,38.9,29.84,NE,45,1.7,-999.0,70,-99.99,,,0.00,Acu-Link.com,2013-04-08 06:40:00,
2013-04-08 02:55:00,47.1,38.2,29.84,NE,45,0.0,-999.0,71,-99.99,,,0.00,Acu-Link.com,2013-04-08 06:55:00,
2013-04-08 03:10:00,46.0,37.5,29.84,ESE,112,0.0,-999.0,72,-99.99,,,0.00,Acu-Link.com,2013-04-08 07:10:00,
2013-04-08 03:25:00,45.5,37.4,29.84,NE,45,1.7,-999.0,73,-99.99,,,0.00,Acu-Link.com,2013-04-08 07:25:00,
2013-04-08 03:41:00,45.1,37.3,29.85,NE,45,0.0,-999.0,74,-99.99,,,0.00,Acu-Link.com,2013-04-08 07:41:00,
2013-04-08 04:12:00,45.0,37.2,29.86,ENE,67,1.7,-999.0,74,-99.99,,,0.00,Acu-Link.com,2013-04-08 08:12:00,
2013-04-08 04:27:00,44.8,37.0,29.86,NNE,22,0.0,-999.0,74,-99.99,,,0.00,Acu-Link.com,2013-04-08 08:27:00,
2013-04-08 04:42:00,44.2,36.8,29.87,NNE,22,2.2,-999.0,75,-99.99,,,0.00,Acu-Link.com,2013-04-08 08:42:00,
2013-04-08 04:57:00,42.8,36.1,29.87,NE,45,1.7,-999.0,77,-99.99,,,0.00,Acu-Link.com,2013-04-08 08:57:00,
2013-04-08 05:12:00,41.7,36.0,29.87,NNE,22,0.0,-999.0,80,-99.99,,,0.00,Acu-Link.com,2013-04-08 09:12:00,
2013-04-08 05:27:00,40.6,35.5,29.87,NE,45,0.0,-999.0,82,-99.99,,,0.00,Acu-Link.com,2013-04-08 09:27:00,
2013-04-08 05:42:00,40.1,35.7,29.88,NE,45,0.0,-999.0,84,-99.99,,,0.00,Acu-Link.com,2013-04-08 09:42:00,
2013-04-08 05:58:00,39.6,35.5,29.88,NE,45,0.0,-999.0,85,-99.99,,,0.00,Acu-Link.com,2013-04-08 09:58:00,
2013-04-08 06:13:00,39.6,35.8,29.89,ENE,67,0.0,-999.0,86,-99.99,,,0.00,Acu-Link.com,2013-04-08 10:13:00,
2013-04-08 06:28:00,39.2,35.4,29.89,SE,135,0.0,-999.0,86,-99.99,,,0.00,Acu-Link.com,2013-04-08 10:28:00,
2013-04-08 06:43:00,38.7,34.9,29.90,NNE,22,0.0,-999.0,86,-99.99,,,0.00,Acu-Link.com,2013-04-08 10:43:00,
2013-04-08 06:58:00,38.1,34.6,29.91,East,90,0.0,-999.0,87,-99.99,,,0.00,Acu-Link.com,2013-04-08 10:58:00,
2013-04-08 07:44:00,39.0,35.8,29.93,SE,135,0.0,-999.0,88,-99.99,,,0.00,Acu-Link.com,2013-04-08 11:44:00,
2013-04-08 08:29:00,44.4,37.0,29.94,ENE,67,3.2,-999.0,75,-99.99,,,0.00,Acu-Link.com,2013-04-08 12:29:00,
2013-04-08 08:44:00,45.7,37.2,29.94,West,270,2.7,-999.0,72,-99.99,,,0.00,Acu-Link.com,2013-04-08 12:44:00,
2013-04-08 09:02:00,46.8,37.5,29.93,West,270,2.7,-999.0,70,-99.99,,,0.00,Acu-Link.com,2013-04-08 13:02:00,
2013-04-08 09:17:00,48.2,37.8,29.93,ENE,67,3.2,-999.0,67,-99.99,,,0.00,Acu-Link.com,2013-04-08 13:17:00,
2013-04-08 09:32:00,51.1,38.1,29.93,West,270,3.7,-999.0,61,-99.99,,,0.00,Acu-Link.com,2013-04-08 13:32:00,
2013-04-08 09:48:00,53.4,39.4,29.92,West,270,1.7,-999.0,59,-99.99,,,0.00,Acu-Link.com,2013-04-08 13:48:00,
2013-04-08 10:03:00,54.7,38.9,29.91,West,270,2.7,-999.0,55,-99.99,,,0.00,Acu-Link.com,2013-04-08 14:03:00,
2013-04-08 10:18:00,55.2,39.8,29.91,West,270,4.2,-999.0,56,-99.99,,,0.00,Acu-Link.com,2013-04-08 14:18:00,
2013-04-08 10:33:00,57.6,41.6,29.91,West,270,1.7,-999.0,55,-99.99,,,0.00,Acu-Link.com,2013-04-08 14:33:00,
2013-04-08 11:34:00,65.1,44.4,29.88,SSE,157,3.2,-999.0,47,-99.99,,,0.00,Acu-Link.com,2013-04-08 15:34:00,
2013-04-08 11:49:00,65.7,44.9,29.87,South,180,2.7,-999.0,47,-99.99,,,0.00,Acu-Link.com,2013-04-08 15:49:00,
2013-04-08 12:04:00,68.4,44.4,29.86,South,180,4.2,-999.0,42,-99.99,,,0.00,Acu-Link.com,2013-04-08 16:04:00,
2013-04-08 12:19:00,67.6,43.1,29.86,SSE,157,5.3,-999.0,41,-99.99,,,0.00,Acu-Link.com,2013-04-08 16:19:00,
2013-04-08 12:34:00,68.2,42.3,29.84,SSE,157,3.7,-999.0,39,-99.99,,,0.00,Acu-Link.com,2013-04-08 16:34:00,
2013-04-08 12:49:00,68.9,42.2,29.83,NE,45,3.2,-999.0,38,-99.99,,,0.00,Acu-Link.com,2013-04-08 16:49:00,
2013-04-08 13:04:00,71.1,40.5,29.83,SE,135,5.3,-999.0,33,-99.99,,,0.00,Acu-Link.com,2013-04-08 17:04:00,
2013-04-08 13:19:00,72.5,37.5,29.81,SE,135,5.8,-999.0,28,-99.99,,,0.00,Acu-Link.com,2013-04-08 17:19:00,
2013-04-08 13:35:00,72.5,39.3,29.81,South,180,3.2,-999.0,30,-99.99,,,0.00,Acu-Link.com,2013-04-08 17:35:00,
2013-04-08 13:50:00,72.5,41.7,29.80,West,270,2.2,-999.0,33,-99.99,,,0.00,Acu-Link.com,2013-04-08 17:50:00,
2013-04-08 14:05:00,74.1,43.1,29.79,ESE,112,5.3,-999.0,33,-99.99,,,0.00,Acu-Link.com,2013-04-08 18:05:00,
2013-04-08 14:20:00,74.7,44.5,29.78,East,90,2.2,-999.0,34,-99.99,,,0.00,Acu-Link.com,2013-04-08 18:20:00,
2013-04-08 14:35:00,73.8,44.4,29.78,South,180,3.2,-999.0,35,-99.99,,,0.00,Acu-Link.com,2013-04-08 18:35:00,
2013-04-08 15:05:00,72.9,44.4,29.76,SE,135,6.3,-999.0,36,-99.99,,,0.00,Acu-Link.com,2013-04-08 19:05:00,
2013-04-08 15:20:00,73.6,44.2,29.75,South,180,2.2,-999.0,35,-99.99,,,0.00,Acu-Link.com,2013-04-08 19:20:00,
2013-04-08 15:35:00,73.0,43.7,29.75,SE,135,0.0,-999.0,35,-99.99,,,0.00,Acu-Link.com,2013-04-08 19:35:00,
2013-04-08 16:06:00,73.2,44.6,29.73,SE,135,3.7,-999.0,36,-99.99,,,0.00,Acu-Link.com,2013-04-08 20:06:00,
2013-04-08 16:21:00,73.2,44.6,29.73,SSE,157,3.2,-999.0,36,-99.99,,,0.00,Acu-Link.com,2013-04-08 20:21:00,
2013-04-08 16:37:00,73.4,46.2,29.72,ESE,112,2.7,-999.0,38,-99.99,,,0.00,Acu-Link.com,2013-04-08 20:37:00,
2013-04-08 16:53:00,72.3,45.3,29.72,SE,135,3.2,-999.0,38,-99.99,,,0.00,Acu-Link.com,2013-04-08 20:53:00,
2013-04-08 17:08:00,73.2,46.1,29.71,SSE,157,2.2,-999.0,38,-99.99,,,0.00,Acu-Link.com,2013-04-08 21:08:00,
2013-04-08 17:23:00,73.2,46.7,29.71,NE,45,1.1,-999.0,39,-99.99,,,0.00,Acu-Link.com,2013-04-08 21:23:00,
2013-04-08 17:38:00,72.0,47.6,29.71,ESE,112,2.2,-999.0,42,-99.99,,,0.00,Acu-Link.com,2013-04-08 21:38:00,
2013-04-08 17:53:00,72.0,47.0,29.71,SE,135,2.2,-999.0,41,-99.99,,,0.00,Acu-Link.com,2013-04-08 21:53:00,
2013-04-08 18:08:00,71.8,47.5,29.71,ESE,112,1.7,-999.0,42,-99.99,,,0.00,Acu-Link.com,2013-04-08 22:08:00,
2013-04-08 18:23:00,71.6,47.9,29.70,East,90,2.7,-999.0,43,-99.99,,,0.00,Acu-Link.com,2013-04-08 22:23:00,
2013-04-08 18:38:00,70.7,48.3,29.71,East,90,0.0,-999.0,45,-99.99,,,0.00,Acu-Link.com,2013-04-08 22:38:00,
2013-04-08 18:54:00,70.0,48.3,29.69,ENE,67,3.2,-999.0,46,-99.99,,,0.00,Acu-Link.com,2013-04-08 22:54:00,
2013-04-08 19:09:00,68.7,49.3,29.70,NNE,22,0.0,-999.0,50,-99.99,,,0.00,Acu-Link.com,2013-04-08 23:09:00,
2013-04-08 19:24:00,67.6,49.3,29.70,ENE,67,0.0,-999.0,52,-99.99,,,0.00,Acu-Link.com,2013-04-08 23:24:00,
2013-04-08 19:39:00,67.5,49.2,29.70,West,270,0.0,-999.0,52,-99.99,,,0.00,Acu-Link.com,2013-04-08 23:39:00,
2013-04-08 19:54:00,66.4,49.2,29.70,NE,45,1.7,-999.0,54,-99.99,,,0.00,Acu-Link.com,2013-04-08 23:54:00,
2013-04-08 20:10:00,64.6,49.5,29.70,ENE,67,1.7,-999.0,58,-99.99,,,0.00,Acu-Link.com,2013-04-09 00:10:00,
2013-04-08 20:25:00,63.9,49.7,29.71,East,90,0.0,-999.0,60,-99.99,,,0.00,Acu-Link.com,2013-04-09 00:25:00,
2013-04-08 20:42:00,63.0,49.3,29.72,NNE,22,0.0,-999.0,61,-99.99,,,0.00,Acu-Link.com,2013-04-09 00:42:00,
2013-04-08 21:07:00,62.6,49.0,29.73,NNE,22,2.2,-999.0,61,-99.99,,,0.00,Acu-Link.com,2013-04-09 01:07:00,
2013-04-08 21:27:00,63.9,48.8,29.72,West,270,4.7,-999.0,58,-99.99,,,0.00,Acu-Link.com,2013-04-09 01:27:00,
2013-04-08 21:48:00,63.9,46.4,29.72,West,270,2.2,-999.0,53,-99.99,,,0.00,Acu-Link.com,2013-04-09 01:48:00,